Matinicus, Maine
Current Conditions -  °F | °C
As of 1:55 AM on Thursday 27 Nov 2014 (Local Time) from KRKD Reporting Station
Overcast Overcast  
Wind Chill: 24°   Ceiling: 1600
Heat Index: 34°   Visibility: 3mi
Dew Point: 28°   Wind: 14mph
Humidity: 81%   Direction: 360°N
Pressure: 29.62"   Gusts: 30mph
Location:  43.86°N, 68.89°W
Report Text: KRKD 270655Z AUTO 36012G26KT 310V020 3SM BKN016 OVC025 01/M02 A2962 RMK AO1 P0005
Loading
Personal Weather Stations






























Interactive Weather Map New forecast layout! Learn more

10-Day Weather Forecast

Advertisements
Track Severe Weather on mobile